sensor_id;sensor_type;location;lat;lon;timestamp;pressure;altitude;pressure_sealevel;temperature;humidity
51299;BME280;37382;45.192;9.790;2023-04-08T04:02:11;101299.13;;;7.46;100.00
51299;BME280;37382;45.192;9.790;2023-04-08T04:04:38;101294.78;;;7.54;100.00
51299;BME280;37382;45.192;9.790;2023-04-08T04:07:07;101297.81;;;7.59;100.00
51299;BME280;37382;45.192;9.790;2023-04-08T04:09:35;101299.78;;;7.40;100.00
51299;BME280;37382;45.192;9.790;2023-04-08T04:12:02;101307.44;;;7.45;100.00
51299;BME280;37382;45.192;9.790;2023-04-08T04:14:30;101296.22;;;7.40;100.00
51299;BME280;37382;45.192;9.790;2023-04-08T04:16:58;101294.00;;;7.35;100.00
51299;BME280;37382;45.192;9.790;2023-04-08T04:19:29;101291.59;;;7.24;100.00
51299;BME280;37382;45.192;9.790;2023-04-08T04:21:57;101298.50;;;7.18;100.00
51299;BME280;37382;45.192;9.790;2023-04-08T04:24:24;101286.84;;;7.18;100.00
51299;BME280;37382;45.192;9.790;2023-04-08T04:26:52;101297.34;;;7.21;100.00
51299;BME280;37382;45.192;9.790;2023-04-08T04:29:19;101283.75;;;7.12;100.00
51299;BME280;37382;45.192;9.790;2023-04-08T04:31:47;101298.50;;;7.18;100.00
51299;BME280;37382;45.192;9.790;2023-04-08T04:34:15;101297.00;;;7.24;100.00
51299;BME280;37382;45.192;9.790;2023-04-08T04:36:43;101294.63;;;7.21;100.00
51299;BME280;37382;45.192;9.790;2023-04-08T04:39:10;101297.66;;;7.18;100.00
51299;BME280;37382;45.192;9.790;2023-04-08T04:41:38;101300.56;;;7.24;100.00
51299;BME280;37382;45.192;9.790;2023-04-08T04:44:06;101298.50;;;7.18;100.00
51299;BME280;37382;45.192;9.790;2023-04-08T04:46:33;101294.91;;;7.09;100.00
51299;BME280;37382;45.192;9.790;2023-04-08T04:49:01;101294.97;;;7.26;100.00
51299;BME280;37382;45.192;9.790;2023-04-08T04:51:32;101297.44;;;7.11;100.00
51299;BME280;37382;45.192;9.790;2023-04-08T04:53:59;101300.78;;;7.05;100.00
51299;BME280;37382;45.192;9.790;2023-04-08T04:56:27;101302.63;;;6.96;100.00
51299;BME280;37382;45.192;9.790;2023-04-08T04:58:55;101301.72;;;6.87;100.00
51299;BME280;37382;45.192;9.790;2023-04-08T05:01:23;101302.94;;;6.93;100.00
51299;BME280;37382;45.192;9.790;2023-04-08T05:03:51;101310.34;;;6.91;100.00
51299;BME280;37382;45.192;9.790;2023-04-08T05:06:19;101317.41;;;7.10;100.00
51299;BME280;37382;45.192;9.790;2023-04-08T05:08:46;101316.53;;;7.09;100.00
51299;BME280;37382;45.192;9.790;2023-04-08T05:11:14;101318.25;;;7.10;100.00
51299;BME280;37382;45.192;9.790;2023-04-08T05:13:44;101318.06;;;7.04;100.00
51299;BME280;37382;45.192;9.790;2023-04-08T05:16:11;101320.47;;;7.15;100.00
51299;BME280;37382;45.192;9.790;2023-04-08T05:18:39;101329.56;;;7.06;100.00
51299;BME280;37382;45.192;9.790;2023-04-08T05:21:07;101330.03;;;7.01;100.00
51299;BME280;37382;45.192;9.790;2023-04-08T05:23:35;101339.38;;;7.07;100.00
51299;BME280;37382;45.192;9.790;2023-04-08T05:26:02;101343.06;;;7.06;100.00
51299;BME280;37382;45.192;9.790;2023-04-08T05:28:32;101339.56;;;7.13;100.00
51299;BME280;37382;45.192;9.790;2023-04-08T05:31:00;101348.00;;;7.10;100.00
51299;BME280;37382;45.192;9.790;2023-04-08T05:33:28;101346.38;;;7.18;100.00
51299;BME280;37382;45.192;9.790;2023-04-08T05:35:55;101336.81;;;7.40;100.00
51299;BME280;37382;45.192;9.790;2023-04-08T05:38:22;101340.66;;;7.29;100.00
51299;BME280;37382;45.192;9.790;2023-04-08T05:40:50;101337.31;;;7.35;100.00
51299;BME280;37382;45.192;9.790;2023-04-08T05:43:17;101331.81;;;7.53;100.00
51299;BME280;37382;45.192;9.790;2023-04-08T05:45:45;101334.91;;;7.66;100.00
51299;BME280;37382;45.192;9.790;2023-04-08T05:48:12;101332.31;;;7.48;100.00
51299;BME280;37382;45.192;9.790;2023-04-08T05:50:40;101334.59;;;7.70;100.00
51299;BME280;37382;45.192;9.790;2023-04-08T05:53:08;101340.94;;;7.52;100.00
51299;BME280;37382;45.192;9.790;2023-04-08T05:55:36;101336.06;;;7.56;100.00
51299;BME280;37382;45.192;9.790;2023-04-08T05:58:04;101337.59;;;7.58;100.00
51299;BME280;37382;45.192;9.790;2023-04-08T06:00:31;101343.84;;;7.59;100.00
51299;BME280;37382;45.192;9.790;2023-04-08T06:02:59;101349.84;;;7.79;100.00
51299;BME280;37382;45.192;9.790;2023-04-08T06:05:27;101348.97;;;7.70;100.00
51299;BME280;37382;45.192;9.790;2023-04-08T06:07:54;101347.97;;;7.79;100.00
51299;BME280;37382;45.192;9.790;2023-04-08T06:10:22;101347.03;;;8.05;100.00
51299;BME280;37382;45.192;9.790;2023-04-08T06:12:49;101344.47;;;8.04;100.00
51299;BME280;37382;45.192;9.790;2023-04-08T06:15:17;101345.34;;;8.20;100.00
51299;BME280;37382;45.192;9.790;2023-04-08T06:17:46;101348.06;;;8.12;100.00
51299;BME280;37382;45.192;9.790;2023-04-08T06:20:13;101348.06;;;8.20;100.00
51299;BME280;37382;45.192;9.790;2023-04-08T06:22:40;101349.09;;;8.19;100.00
51299;BME280;37382;45.192;9.790;2023-04-08T06:25:08;101355.53;;;8.18;100.00
51299;BME280;37382;45.192;9.790;2023-04-08T06:27:36;101348.81;;;8.47;100.00
51299;BME280;37382;45.192;9.790;2023-04-08T06:30:04;101353.38;;;8.71;100.00
51299;BME280;37382;45.192;9.790;2023-04-08T06:32:31;101348.47;;;8.67;100.00
51299;BME280;37382;45.192;9.790;2023-04-08T06:34:59;101348.28;;;8.77;100.00
51299;BME280;37382;45.192;9.790;2023-04-08T06:37:27;101348.59;;;8.98;100.00
51299;BME280;37382;45.192;9.790;2023-04-08T06:39:55;101347.69;;;9.31;100.00
51299;BME280;37382;45.192;9.790;2023-04-08T06:42:22;101345.97;;;9.30;100.00
51299;BME280;37382;45.192;9.790;2023-04-08T06:45:05;101346.41;;;9.02;100.00
51299;BME280;37382;45.192;9.790;2023-04-08T06:47:33;101348.59;;;8.98;100.00
51299;BME280;37382;45.192;9.790;2023-04-08T06:50:01;101353.63;;;9.26;100.00
51299;BME280;37382;45.192;9.790;2023-04-08T06:52:28;101348.00;;;9.36;100.00
51299;BME280;37382;45.192;9.790;2023-04-08T06:54:55;101346.09;;;9.44;100.00
51299;BME280;37382;45.192;9.790;2023-04-08T06:57:23;101345.47;;;9.74;100.00
51299;BME280;37382;45.192;9.790;2023-04-08T06:59:50;101352.56;;;10.14;100.00
51299;BME280;37382;45.192;9.790;2023-04-08T07:02:19;101346.75;;;10.18;100.00
51299;BME280;37382;45.192;9.790;2023-04-08T07:04:48;101350.75;;;10.30;100.00
51299;BME280;37382;45.192;9.790;2023-04-08T07:07:15;101357.13;;;10.14;100.00
51299;BME280;37382;45.192;9.790;2023-04-08T07:09:43;101352.94;;;10.03;100.00
51299;BME280;37382;45.192;9.790;2023-04-08T07:12:12;101353.78;;;9.81;100.00
51299;BME280;37382;45.192;9.790;2023-04-08T07:14:40;101357.81;;;9.85;100.00
51299;BME280;37382;45.192;9.790;2023-04-08T07:17:07;101361.75;;;9.82;100.00
51299;BME280;37382;45.192;9.790;2023-04-08T07:19:35;101351.44;;;10.01;100.00
51299;BME280;37382;45.192;9.790;2023-04-08T07:22:02;101361.41;;;10.40;100.00
51299;BME280;37382;45.192;9.790;2023-04-08T07:24:29;101359.47;;;10.48;100.00
51299;BME280;37382;45.192;9.790;2023-04-08T07:26:58;101363.75;;;10.66;100.00
51299;BME280;37382;45.192;9.790;2023-04-08T07:29:25;101370.53;;;10.47;100.00
51299;BME280;37382;45.192;9.790;2023-04-08T07:31:54;101367.34;;;10.43;100.00
51299;BME280;37382;45.192;9.790;2023-04-08T07:34:21;101374.31;;;10.84;100.00
51299;BME280;37382;45.192;9.790;2023-04-08T07:36:49;101370.16;;;10.73;100.00
51299;BME280;37382;45.192;9.790;2023-04-08T07:39:17;101363.41;;;10.84;100.00
51299;BME280;37382;45.192;9.790;2023-04-08T07:41:44;101360.97;;;11.42;100.00
51299;BME280;37382;45.192;9.790;2023-04-08T07:44:12;101366.72;;;10.94;100.00
51299;BME280;37382;45.192;9.790;2023-04-08T07:46:43;101373.97;;;11.02;100.00
51299;BME280;37382;45.192;9.790;2023-04-08T07:49:12;101369.94;;;11.13;100.00
51299;BME280;37382;45.192;9.790;2023-04-08T07:51:40;101381.22;;;11.25;100.00
51299;BME280;37382;45.192;9.790;2023-04-08T07:54:07;101372.31;;;11.46;100.00
51299;BME280;37382;45.192;9.790;2023-04-08T07:56:38;101373.25;;;11.38;100.00
51299;BME280;37382;45.192;9.790;2023-04-08T07:59:06;101365.72;;;11.25;100.00
51299;BME280;37382;45.192;9.790;2023-04-08T08:01:33;101376.63;;;11.25;100.00
51299;BME280;37382;45.192;9.790;2023-04-08T08:04:02;101375.31;;;11.51;100.00
51299;BME280;37382;45.192;9.790;2023-04-08T08:06:30;101374.75;;;11.55;100.00
51299;BME280;37382;45.192;9.790;2023-04-08T08:08:59;101375.03;;;11.46;100.00
51299;BME280;37382;45.192;9.790;2023-04-08T08:11:27;101369.69;;;11.37;100.00
51299;BME280;37382;45.192;9.790;2023-04-08T08:13:54;101356.78;;;11.91;100.00
51299;BME280;37382;45.192;9.790;2023-04-08T08:16:22;101358.94;;;11.81;100.00
51299;BME280;37382;45.192;9.790;2023-04-08T08:18:53;101357.31;;;12.01;100.00
51299;BME280;37382;45.192;9.790;2023-04-08T08:21:21;101365.06;;;12.19;100.00
51299;BME280;37382;45.192;9.790;2023-04-08T08:23:51;101368.09;;;12.24;100.00
51299;BME280;37382;45.192;9.790;2023-04-08T08:26:18;101369.34;;;12.93;100.00
51299;BME280;37382;45.192;9.790;2023-04-08T08:28:47;101365.56;;;12.23;100.00
51299;BME280;37382;45.192;9.790;2023-04-08T08:31:14;101369.00;;;12.53;100.00
51299;BME280;37382;45.192;9.790;2023-04-08T08:33:42;101371.25;;;12.71;100.00
51299;BME280;37382;45.192;9.790;2023-04-08T08:36:09;101374.53;;;12.38;100.00
51299;BME280;37382;45.192;9.790;2023-04-08T08:38:37;101373.41;;;12.33;100.00
51299;BME280;37382;45.192;9.790;2023-04-08T08:41:04;101381.78;;;12.31;100.00
51299;BME280;37382;45.192;9.790;2023-04-08T08:43:32;101370.56;;;12.62;100.00
51299;BME280;37382;45.192;9.790;2023-04-08T08:46:00;101371.94;;;12.52;100.00
51299;BME280;37382;45.192;9.790;2023-04-08T08:48:28;101370.94;;;12.38;100.00
51299;BME280;37382;45.192;9.790;2023-04-08T08:50:55;101371.50;;;13.33;100.00
51299;BME280;37382;45.192;9.790;2023-04-08T08:53:29;101374.38;;;12.90;100.00
51299;BME280;37382;45.192;9.790;2023-04-08T08:56:02;101371.09;;;13.01;100.00
51299;BME280;37382;45.192;9.790;2023-04-08T08:58:33;101369.06;;;13.10;100.00
51299;BME280;37382;45.192;9.790;2023-04-08T09:01:00;101366.78;;;13.48;100.00
51299;BME280;37382;45.192;9.790;2023-04-08T09:03:28;101366.56;;;13.85;100.00
51299;BME280;37382;45.192;9.790;2023-04-08T09:05:58;101372.38;;;13.33;100.00
51299;BME280;37382;45.192;9.790;2023-04-08T09:08:28;101370.88;;;13.31;100.00
51299;BME280;37382;45.192;9.790;2023-04-08T09:11:29;101366.78;;;13.48;100.00
51299;BME280;37382;45.192;9.790;2023-04-08T09:13:57;101366.13;;;13.81;100.00
51299;BME280;37382;45.192;9.790;2023-04-08T09:16:24;101363.84;;;13.92;100.00
51299;BME280;37382;45.192;9.790;2023-04-08T09:18:53;101361.34;;;13.97;100.00
51299;BME280;37382;45.192;9.790;2023-04-08T09:21:22;101363.47;;;14.08;100.00
51299;BME280;37382;45.192;9.790;2023-04-08T09:23:51;101355.88;;;14.03;100.00
51299;BME280;37382;45.192;9.790;2023-04-08T09:26:22;101354.50;;;14.34;100.00
51299;BME280;37382;45.192;9.790;2023-04-08T09:28:58;101351.97;;;14.39;100.00
51299;BME280;37382;45.192;9.790;2023-04-08T09:31:36;101366.66;;;13.57;100.00
51299;BME280;37382;45.192;9.790;2023-04-08T09:34:15;101363.94;;;13.63;100.00
51299;BME280;37382;45.192;9.790;2023-04-08T09:36:44;101350.28;;;13.63;100.00
51299;BME280;37382;45.192;9.790;2023-04-08T09:39:12;101347.88;;;13.53;100.00
51299;BME280;37382;45.192;9.790;2023-04-08T09:41:40;101341.31;;;13.90;100.00
51299;BME280;37382;45.192;9.790;2023-04-08T09:44:10;101345.44;;;14.27;100.00
51299;BME280;37382;45.192;9.790;2023-04-08T09:46:43;101340.97;;;14.13;100.00
51299;BME280;37382;45.192;9.790;2023-04-08T09:49:31;101345.28;;;14.69;100.00
51299;BME280;37382;45.192;9.790;2023-04-08T09:52:10;101340.41;;;14.57;100.00
51299;BME280;37382;45.192;9.790;2023-04-08T09:54:47;101336.59;;;14.58;100.00
51299;BME280;37382;45.192;9.790;2023-04-08T09:57:40;101334.97;;;14.77;100.00
51299;BME280;37382;45.192;9.790;2023-04-08T10:00:16;101331.56;;;15.02;100.00
51299;BME280;37382;45.192;9.790;2023-04-08T10:05:30;101331.38;;;14.70;100.00
51299;BME280;37382;45.192;9.790;2023-04-08T10:07:57;101326.78;;;14.71;100.00
51299;BME280;37382;45.192;9.790;2023-04-08T10:10:25;101335.13;;;14.29;100.00
51299;BME280;37382;45.192;9.790;2023-04-08T10:12:53;101333.50;;;14.75;100.00
51299;BME280;37382;45.192;9.790;2023-04-08T10:15:32;101329.19;;;15.33;100.00
51299;BME280;37382;45.192;9.790;2023-04-08T10:23:15;101324.97;;;15.37;100.00
51299;BME280;37382;45.192;9.790;2023-04-08T10:25:44;101321.34;;;16.01;100.00
51299;BME280;37382;45.192;9.790;2023-04-08T10:30:45;101312.22;;;16.14;100.00
51299;BME280;37382;45.192;9.790;2023-04-08T10:33:15;101326.28;;;16.25;98.45
51299;BME280;37382;45.192;9.790;2023-04-08T10:35:47;101309.34;;;16.60;92.70
51299;BME280;37382;45.192;9.790;2023-04-08T10:38:15;101313.94;;;16.91;89.51
51299;BME280;37382;45.192;9.790;2023-04-08T10:40:44;101313.47;;;16.18;84.71
51299;BME280;37382;45.192;9.790;2023-04-08T10:43:13;101314.13;;;16.96;86.52
51299;BME280;37382;45.192;9.790;2023-04-08T10:45:41;101304.84;;;16.65;82.76
51299;BME280;37382;45.192;9.790;2023-04-08T10:48:18;101296.56;;;16.72;85.98
51299;BME280;37382;45.192;9.790;2023-04-08T10:50:57;101300.41;;;17.15;86.71
51299;BME280;37382;45.192;9.790;2023-04-08T10:53:32;101294.13;;;17.45;85.58
51299;BME280;37382;45.192;9.790;2023-04-08T10:56:07;101291.75;;;16.67;84.19
51299;BME280;37382;45.192;9.790;2023-04-08T10:58:35;101309.44;;;16.71;85.61
51299;BME280;37382;45.192;9.790;2023-04-08T11:01:06;101295.72;;;16.46;78.53
51299;BME280;37382;45.192;9.790;2023-04-08T11:03:35;101299.31;;;16.72;79.08
51299;BME280;37382;45.192;9.790;2023-04-08T11:06:15;101292.38;;;17.32;79.38
51299;BME280;37382;45.192;9.790;2023-04-08T11:08:43;101288.25;;;17.41;80.12
51299;BME280;37382;45.192;9.790;2023-04-08T11:11:11;101287.13;;;17.12;78.45
51299;BME280;37382;45.192;9.790;2023-04-08T11:13:41;101282.00;;;17.34;77.33
51299;BME280;37382;45.192;9.790;2023-04-08T11:16:20;101282.03;;;16.65;77.69
51299;BME280;37382;45.192;9.790;2023-04-08T11:18:52;101280.47;;;17.01;78.69
51299;BME280;37382;45.192;9.790;2023-04-08T11:21:22;101273.50;;;17.17;78.30
51299;BME280;37382;45.192;9.790;2023-04-08T11:23:51;101278.63;;;16.69;73.56
51299;BME280;37382;45.192;9.790;2023-04-08T11:26:20;101274.97;;;17.38;71.57
51299;BME280;37382;45.192;9.790;2023-04-08T11:28:48;101267.06;;;17.60;71.30
51299;BME280;37382;45.192;9.790;2023-04-08T11:31:18;101257.66;;;17.98;70.62
51299;BME280;37382;45.192;9.790;2023-04-08T11:33:53;101256.00;;;17.97;67.16
51299;BME280;37382;45.192;9.790;2023-04-08T11:36:22;101263.56;;;16.97;67.99
51299;BME280;37382;45.192;9.790;2023-04-08T11:38:53;101247.13;;;17.95;68.20
51299;BME280;37382;45.192;9.790;2023-04-08T11:41:20;101249.38;;;18.17;67.01
51299;BME280;37382;45.192;9.790;2023-04-08T11:43:53;101245.97;;;18.14;66.68
51299;BME280;37382;45.192;9.790;2023-04-08T11:46:24;101251.22;;;18.70;64.92
51299;BME280;37382;45.192;9.790;2023-04-08T11:48:58;101246.41;;;18.54;62.46
51299;BME280;37382;45.192;9.790;2023-04-08T11:51:26;101251.19;;;18.46;60.80
51299;BME280;37382;45.192;9.790;2023-04-08T11:53:54;101243.19;;;18.57;61.80
51299;BME280;37382;45.192;9.790;2023-04-08T11:56:23;101249.75;;;19.03;61.36
51299;BME280;37382;45.192;9.790;2023-04-08T11:58:51;101238.72;;;19.15;58.28
51299;BME280;37382;45.192;9.790;2023-04-08T12:01:19;101231.41;;;19.09;58.68
51299;BME280;37382;45.192;9.790;2023-04-08T12:03:59;101231.31;;;19.04;58.55
51299;BME280;37382;45.192;9.790;2023-04-08T12:06:28;101223.97;;;19.09;57.44
51299;BME280;37382;45.192;9.790;2023-04-08T12:08:55;101222.94;;;19.39;57.08
51299;BME280;37382;45.192;9.790;2023-04-08T12:11:23;101221.88;;;19.40;53.90
51299;BME280;37382;45.192;9.790;2023-04-08T12:13:51;101212.97;;;18.62;58.21
51299;BME280;37382;45.192;9.790;2023-04-08T12:16:20;101211.91;;;19.39;56.32
51299;BME280;37382;45.192;9.790;2023-04-08T12:18:47;101212.66;;;19.63;55.81
51299;BME280;37382;45.192;9.790;2023-04-08T12:21:16;101206.81;;;19.60;54.48
51299;BME280;37382;45.192;9.790;2023-04-08T12:23:43;101206.72;;;19.83;51.23
51299;BME280;37382;45.192;9.790;2023-04-08T12:26:11;101193.41;;;19.97;51.54
51299;BME280;37382;45.192;9.790;2023-04-08T12:28:39;101192.84;;;20.12;52.86
51299;BME280;37382;45.192;9.790;2023-04-08T12:31:06;101188.53;;;20.55;52.43
51299;BME280;37382;45.192;9.790;2023-04-08T12:33:34;101193.28;;;20.94;51.21
51299;BME280;37382;45.192;9.790;2023-04-08T12:36:02;101191.25;;;20.67;49.47
51299;BME280;37382;45.192;9.790;2023-04-08T12:38:30;101188.94;;;20.64;49.32
51299;BME280;37382;45.192;9.790;2023-04-08T12:40:58;101191.16;;;21.23;48.68
51299;BME280;37382;45.192;9.790;2023-04-08T12:43:25;101186.25;;;20.86;48.63
51299;BME280;37382;45.192;9.790;2023-04-08T12:45:53;101186.66;;;20.22;49.00
51299;BME280;37382;45.192;9.790;2023-04-08T12:48:20;101182.28;;;20.77;49.32
51299;BME280;37382;45.192;9.790;2023-04-08T12:50:48;101196.19;;;20.65;48.01
51299;BME280;37382;45.192;9.790;2023-04-08T12:53:16;101187.91;;;20.87;45.63
51299;BME280;37382;45.192;9.790;2023-04-08T12:55:44;101184.50;;;20.63;47.27
51299;BME280;37382;45.192;9.790;2023-04-08T12:58:13;101185.75;;;20.16;47.42
51299;BME280;37382;45.192;9.790;2023-04-08T13:00:43;101184.50;;;20.07;46.46
51299;BME280;37382;45.192;9.790;2023-04-08T13:03:12;101177.75;;;20.54;47.61
51299;BME280;37382;45.192;9.790;2023-04-08T13:05:43;101178.94;;;20.97;47.16
51299;BME280;37382;45.192;9.790;2023-04-08T13:08:11;101167.94;;;21.02;47.06
51299;BME280;37382;45.192;9.790;2023-04-08T13:10:39;101175.03;;;21.64;46.73
51299;BME280;37382;45.192;9.790;2023-04-08T13:13:07;101166.16;;;21.40;45.56
51299;BME280;37382;45.192;9.790;2023-04-08T13:15:35;101166.25;;;21.23;45.38
51299;BME280;37382;45.192;9.790;2023-04-08T13:18:03;101170.69;;;20.80;45.23
51299;BME280;37382;45.192;9.790;2023-04-08T13:20:31;101169.28;;;21.22;46.57
51299;BME280;37382;45.192;9.790;2023-04-08T13:22:58;101167.66;;;21.04;45.42
51299;BME280;37382;45.192;9.790;2023-04-08T13:25:27;101161.34;;;21.30;45.83
51299;BME280;37382;45.192;9.790;2023-04-08T13:27:56;101156.00;;;21.73;44.47
51299;BME280;37382;45.192;9.790;2023-04-08T13:30:23;101161.13;;;22.24;44.47
51299;BME280;37382;45.192;9.790;2023-04-08T13:32:51;101154.44;;;21.55;43.31
51299;BME280;37382;45.192;9.790;2023-04-08T13:35:18;101144.81;;;21.90;43.99
51299;BME280;37382;45.192;9.790;2023-04-08T13:37:46;101143.19;;;22.32;43.04
51299;BME280;37382;45.192;9.790;2023-04-08T13:40:13;101139.78;;;21.87;42.76
51299;BME280;37382;45.192;9.790;2023-04-08T13:42:41;101135.13;;;21.93;42.45
51299;BME280;37382;45.192;9.790;2023-04-08T13:45:09;101144.22;;;22.63;42.01
51299;BME280;37382;45.192;9.790;2023-04-08T13:47:36;101140.66;;;22.68;42.01
51299;BME280;37382;45.192;9.790;2023-04-08T13:50:06;101142.28;;;22.64;41.58
51299;BME280;37382;45.192;9.790;2023-04-08T13:52:34;101136.19;;;22.62;41.85
51299;BME280;37382;45.192;9.790;2023-04-08T13:55:01;101137.16;;;21.48;41.09
51299;BME280;37382;45.192;9.790;2023-04-08T13:57:29;101133.25;;;22.36;38.73
51299;BME280;37382;45.192;9.790;2023-04-08T13:59:56;101127.94;;;21.64;39.09
51299;BME280;37382;45.192;9.790;2023-04-08T14:02:24;101126.50;;;21.35;41.27
51299;BME280;37382;45.192;9.790;2023-04-08T14:04:51;101124.59;;;22.75;40.19
51299;BME280;37382;45.192;9.790;2023-04-08T14:07:19;101127.47;;;22.05;40.85
51299;BME280;37382;45.192;9.790;2023-04-08T14:09:47;101127.41;;;22.85;40.27
51299;BME280;37382;45.192;9.790;2023-04-08T14:12:14;101119.97;;;23.01;40.43
51299;BME280;37382;45.192;9.790;2023-04-08T14:14:42;101118.53;;;22.88;39.70
51299;BME280;37382;45.192;9.790;2023-04-08T14:17:10;101114.28;;;23.29;39.12
51299;BME280;37382;45.192;9.790;2023-04-08T14:19:38;101110.16;;;23.83;38.59
51299;BME280;37382;45.192;9.790;2023-04-08T14:22:05;101106.22;;;24.30;36.83
51299;BME280;37382;45.192;9.790;2023-04-08T14:24:33;101069.03;;;28.38;32.30
51299;BME280;37382;45.192;9.790;2023-04-08T14:27:01;101081.25;;;30.92;28.82
51299;BME280;37382;45.192;9.790;2023-04-08T14:29:29;101068.59;;;32.89;26.75
51299;BME280;37382;45.192;9.790;2023-04-08T14:31:56;101086.41;;;34.69;23.81
51299;BME280;37382;45.192;9.790;2023-04-08T14:34:24;101087.78;;;33.25;24.19
51299;BME280;37382;45.192;9.790;2023-04-08T14:36:52;101085.03;;;35.16;23.19
51299;BME280;37382;45.192;9.790;2023-04-08T14:39:19;101083.03;;;37.16;21.01
51299;BME280;37382;45.192;9.790;2023-04-08T14:41:47;101101.84;;;35.77;21.58
51299;BME280;37382;45.192;9.790;2023-04-08T14:44:15;101093.91;;;36.95;20.85
51299;BME280;37382;45.192;9.790;2023-04-08T14:46:42;101093.25;;;39.26;18.91
51299;BME280;37382;45.192;9.790;2023-04-08T14:49:10;101095.06;;;38.11;19.91
51299;BME280;37382;45.192;9.790;2023-04-08T14:51:38;101093.22;;;40.35;18.89
51299;BME280;37382;45.192;9.790;2023-04-08T14:54:05;101104.44;;;37.14;20.13
51299;BME280;37382;45.192;9.790;2023-04-08T14:56:33;101099.66;;;39.19;19.03
51299;BME280;37382;45.192;9.790;2023-04-08T14:59:00;101091.47;;;38.87;18.57
51299;BME280;37382;45.192;9.790;2023-04-08T15:01:28;101095.38;;;38.25;18.22
51299;BME280;37382;45.192;9.790;2023-04-08T15:03:58;101103.47;;;36.39;20.21
51299;BME280;37382;45.192;9.790;2023-04-08T15:06:26;101102.09;;;36.32;20.27
51299;BME280;37382;45.192;9.790;2023-04-08T15:08:53;101095.31;;;37.40;19.49
51299;BME280;37382;45.192;9.790;2023-04-08T15:11:21;101104.88;;;35.85;20.22
51299;BME280;37382;45.192;9.790;2023-04-08T15:13:49;101085.78;;;36.77;19.94
51299;BME280;37382;45.192;9.790;2023-04-08T15:16:17;101094.44;;;33.42;21.92
51299;BME280;37382;45.192;9.790;2023-04-08T15:18:45;101099.97;;;33.08;22.89
51299;BME280;37382;45.192;9.790;2023-04-08T15:21:13;101093.31;;;32.06;23.35
51299;BME280;37382;45.192;9.790;2023-04-08T15:23:40;101088.91;;;33.45;22.33
51299;BME280;37382;45.192;9.790;2023-04-08T15:26:09;101086.34;;;35.18;20.88
51299;BME280;37382;45.192;9.790;2023-04-08T15:28:37;101089.72;;;35.93;20.41
51299;BME280;37382;45.192;9.790;2023-04-08T15:31:06;101087.97;;;33.41;22.51
51299;BME280;37382;45.192;9.790;2023-04-08T15:33:34;101092.97;;;34.98;21.33
51299;BME280;37382;45.192;9.790;2023-04-08T15:36:05;101100.59;;;35.09;21.02
51299;BME280;37382;45.192;9.790;2023-04-08T15:38:32;101104.63;;;31.53;22.83
51299;BME280;37382;45.192;9.790;2023-04-08T15:40:59;101101.13;;;31.91;23.34
51299;BME280;37382;45.192;9.790;2023-04-08T15:43:27;101100.34;;;30.55;24.56
51299;BME280;37382;45.192;9.790;2023-04-08T15:45:55;101101.88;;;28.88;25.59
51299;BME280;37382;45.192;9.790;2023-04-08T15:48:22;101107.66;;;28.22;26.41
51299;BME280;37382;45.192;9.790;2023-04-08T15:50:50;101098.34;;;29.70;24.88
51299;BME280;37382;45.192;9.790;2023-04-08T15:53:18;101106.41;;;30.16;25.43
51299;BME280;37382;45.192;9.790;2023-04-08T15:55:46;101100.56;;;28.72;25.72
51299;BME280;37382;45.192;9.790;2023-04-08T15:58:13;101106.00;;;27.37;26.82
51299;BME280;37382;45.192;9.790;2023-04-08T16:00:41;101111.72;;;25.71;29.37
51299;BME280;37382;45.192;9.790;2023-04-08T16:03:09;101111.13;;;25.74;28.91
51299;BME280;37382;45.192;9.790;2023-04-08T16:05:38;101109.25;;;25.19;30.77
51299;BME280;37382;45.192;9.790;2023-04-08T16:08:08;101108.13;;;24.60;30.86
51299;BME280;37382;45.192;9.790;2023-04-08T16:10:36;101112.09;;;24.03;32.11
51299;BME280;37382;45.192;9.790;2023-04-08T16:13:03;101111.81;;;24.25;32.31
51299;BME280;37382;45.192;9.790;2023-04-08T16:15:30;101114.28;;;24.31;32.71
51299;BME280;37382;45.192;9.790;2023-04-08T16:18:01;101119.88;;;24.21;31.46
51299;BME280;37382;45.192;9.790;2023-04-08T16:20:29;101121.56;;;22.82;32.91
51299;BME280;37382;45.192;9.790;2023-04-08T16:22:57;101126.28;;;22.81;34.69
51299;BME280;37382;45.192;9.790;2023-04-08T16:25:24;101135.44;;;22.82;35.87
51299;BME280;37382;45.192;9.790;2023-04-08T16:27:54;101131.63;;;22.08;37.36
51299;BME280;37382;45.192;9.790;2023-04-08T16:30:22;101135.84;;;21.28;37.88
51299;BME280;37382;45.192;9.790;2023-04-08T16:32:49;101145.16;;;20.95;39.02
51299;BME280;37382;45.192;9.790;2023-04-08T16:35:17;101145.75;;;20.58;39.79
51299;BME280;37382;45.192;9.790;2023-04-08T16:37:46;101151.88;;;20.43;40.48
51299;BME280;37382;45.192;9.790;2023-04-08T16:40:15;101153.84;;;20.25;40.22
51299;BME280;37382;45.192;9.790;2023-04-08T16:42:42;101165.22;;;20.12;40.73
51299;BME280;37382;45.192;9.790;2023-04-08T16:45:10;101160.16;;;20.43;40.98
51299;BME280;37382;45.192;9.790;2023-04-08T16:47:37;101165.91;;;20.19;41.73
51299;BME280;37382;45.192;9.790;2023-04-08T16:50:07;101165.72;;;20.26;41.72
51299;BME280;37382;45.192;9.790;2023-04-08T16:52:35;101173.44;;;20.07;42.54
51299;BME280;37382;45.192;9.790;2023-04-08T16:55:03;101171.56;;;20.13;42.17
51299;BME280;37382;45.192;9.790;2023-04-08T16:57:31;101178.56;;;19.69;42.14
51299;BME280;37382;45.192;9.790;2023-04-08T16:59:58;101177.78;;;19.28;42.67
51299;BME280;37382;45.192;9.790;2023-04-08T17:02:25;101181.47;;;18.70;44.64
51299;BME280;37382;45.192;9.790;2023-04-08T17:04:53;101183.28;;;18.40;44.39
51299;BME280;37382;45.192;9.790;2023-04-08T17:07:21;101182.31;;;18.23;46.00